Time;durP1;ratioP1;P1;durP2;ratioP2;P2;SDS_P1;SDS_P2;PMS_P1;PMS_P2;Temp;Humidity;BMP_temperature;BMP_pressure;BME280_temperature;BME280_humidity;BME280_pressure;Samples;Min_cycle;Max_cycle;Signal;HPM_P1;HPM_P2
2022/09/01 05:11:47;;;;;;;;;6.50;4.25;;;;;21.67;55.62;101391.75;2604005;22;45631;-80
2022/09/01 05:12:57;;;;;;;;;14.50;12.50;;;;;21.70;55.80;101391.50;2409871;28;47185;-80
2022/09/01 05:14:08;;;;;;;;;9.50;9.50;;;;;21.70;56.00;101383.50;2411628;28;44773;-79
2022/09/01 05:15:19;;;;;;;;;15.75;12.50;;;;;21.73;56.04;101384.25;2412306;28;45342;-81
2022/09/01 05:16:31;;;;;;;;;8.00;7.00;;;;;21.74;55.95;101394.84;2412147;28;45484;-81
2022/09/01 05:17:42;;;;;;;;;13.25;11.50;;;;;21.76;55.72;101395.59;2412015;28;45412;-79
2022/09/01 05:18:55;;;;;;;;;13.75;12.50;;;;;21.77;55.81;101399.13;2411241;28;45248;-79
2022/09/01 05:20:09;;;;;;;;;14.50;13.00;;;;;21.75;55.21;101391.22;2411474;28;45432;-79
2022/09/01 05:21:23;;;;;;;;;13.00;11.75;;;;;21.75;55.17;101396.56;2411701;28;45606;-79
2022/09/01 05:22:34;;;;;;;;;10.75;10.75;;;;;21.75;55.52;101401.91;2411357;28;46200;-79
2022/09/01 05:23:45;;;;;;;;;15.00;11.50;;;;;21.76;55.10;101398.25;2411426;28;45240;-79
2022/09/01 05:25:10;;;;;;;;;12.25;12.00;;;;;21.78;56.08;101393.66;2420647;28;46159;-79
2022/09/01 05:26:24;;;;;;;;;13.25;12.50;;;;;21.78;55.30;101393.66;2415182;28;45280;-79
2022/09/01 05:27:35;;;;;;;;;14.75;12.00;;;;;21.78;55.09;101390.97;2411278;28;45526;-79
2022/09/01 05:28:48;;;;;;;;;10.00;10.00;;;;;21.79;55.62;101390.03;2412035;28;44701;-79
2022/09/01 05:30:00;;;;;;;;;14.50;12.50;;;;;21.80;55.40;101388.22;2411957;28;45201;-79
2022/09/01 05:31:11;;;;;;;;;13.25;13.25;;;;;21.81;55.36;101387.22;2412072;28;45465;-79
2022/09/01 05:32:24;;;;;;;;;14.75;14.50;;;;;21.80;55.48;101389.03;2411644;28;46125;-79
2022/09/01 05:33:35;;;;;;;;;13.50;11.50;;;;;21.84;55.94;101394.19;2412012;28;45569;-80
2022/09/01 05:34:46;;;;;;;;;15.00;12.00;;;;;21.83;55.30;101390.66;2411798;28;46341;-80
2022/09/01 05:36:02;;;;;;;;;11.75;11.75;;;;;21.83;55.52;101387.97;2412175;28;45217;-79
2022/09/01 05:37:13;;;;;;;;;11.00;10.00;;;;;21.86;55.49;101392.25;2411922;28;45542;-79
2022/09/01 05:38:24;;;;;;;;;15.00;10.50;;;;;21.87;55.75;101388.66;2411175;28;45299;-79
2022/09/01 05:39:36;;;;;;;;;10.50;10.00;;;;;21.89;55.75;101398.28;2411026;28;46662;-79
2022/09/01 05:40:56;;;;;;;;;11.25;10.75;;;;;21.92;55.35;101399.88;2411246;28;45371;-79
2022/09/01 05:42:07;;;;;;;;;12.75;11.75;;;;;21.93;55.27;101396.22;2411138;28;46305;-79
2022/09/01 05:43:17;;;;;;;;;15.50;12.50;;;;;21.95;55.80;101396.16;2411904;28;44759;-79
2022/09/01 05:44:27;;;;;;;;;9.25;9.25;;;;;21.98;55.08;101404.78;2411648;28;45415;-79
2022/09/01 05:45:42;;;;;;;;;9.50;9.50;;;;;22.02;55.46;101402.75;2411828;28;45197;-80
2022/09/01 05:46:54;;;;;;;;;13.75;12.00;;;;;22.02;55.10;101397.41;2412212;28;45595;-79
2022/09/01 05:48:05;;;;;;;;;13.00;11.50;;;;;22.03;54.86;101404.47;2411872;28;45284;-80
2022/09/01 05:49:17;;;;;;;;;13.75;13.25;;;;;22.06;55.08;101400.72;2411497;28;45358;-79
2022/09/01 05:50:28;;;;;;;;;12.75;10.25;;;;;22.07;55.01;101400.63;2411198;28;45522;-79
2022/09/01 05:51:41;;;;;;;;;14.00;11.50;;;;;22.10;55.26;101402.22;2409269;28;46156;-79
2022/09/01 05:52:52;;;;;;;;;9.50;9.00;;;;;22.10;55.58;101394.19;2411903;28;45515;-79
2022/09/01 05:54:03;;;;;;;;;12.50;11.75;;;;;22.15;55.24;101392.00;2420616;28;46532;-79
2022/09/01 05:55:14;;;;;;;;;12.75;11.75;;;;;22.12;55.16;101392.25;2414866;28;45469;-80
2022/09/01 05:56:29;;;;;;;;;11.75;11.00;;;;;22.13;55.30;101402.84;2420016;28;45633;-79
2022/09/01 05:57:40;;;;;;;;;14.25;10.75;;;;;22.15;55.11;101397.38;2420371;28;45156;-79
2022/09/01 05:58:52;;;;;;;;;15.25;13.50;;;;;22.15;55.00;101400.03;2412651;28;45527;-79
2022/09/01 06:00:11;;;;;;;;;14.75;10.50;;;;;22.14;54.75;101393.00;2412517;28;44812;-79
2022/09/01 06:01:26;;;;;;;;;12.00;11.50;;;;;22.13;55.08;101391.28;2412524;28;46314;-79
2022/09/01 06:02:38;;;;;;;;;13.50;11.75;;;;;22.17;55.08;101394.59;2414991;28;44621;-79
2022/09/01 06:03:53;;;;;;;;;9.50;9.50;;;;;22.17;54.82;101390.09;2421555;28;46226;-79
2022/09/01 06:05:05;;;;;;;;;12.50;12.50;;;;;22.16;55.01;101385.69;2412765;28;45337;-79
2022/09/01 06:06:16;;;;;;;;;11.00;11.00;;;;;22.18;55.07;101388.25;2412917;28;47687;-79
2022/09/01 06:07:27;;;;;;;;;14.25;11.75;;;;;22.19;54.52;101395.34;2422208;28;45239;-79
2022/09/01 06:08:37;;;;;;;;;11.25;10.25;;;;;22.22;54.63;101401.34;2414107;28;47916;-79
2022/09/01 06:09:48;;;;;;;;;11.75;11.25;;;;;22.22;55.04;101397.78;2412077;28;44640;-82
2022/09/01 06:10:59;;;;;;;;;12.00;12.00;;;;;22.23;55.02;101397.69;2412501;28;46558;-81
2022/09/01 06:12:21;;;;;;;;;13.25;12.75;;;;;22.26;54.99;101397.47;2412015;28;44793;-81
2022/09/01 06:13:32;;;;;;;;;13.00;12.25;;;;;22.26;54.53;101397.47;2403136;28;45532;-81
2022/09/01 06:14:45;;;;;;;;;14.75;13.50;;;;;22.28;54.68;101404.50;2410472;28;45441;-81
2022/09/01 06:15:57;;;;;;;;;14.25;12.00;;;;;22.27;54.50;101401.00;2419153;28;45325;-81
2022/09/01 06:17:09;;;;;;;;;12.25;12.25;;;;;22.29;54.23;101403.56;2416790;28;45331;-81
2022/09/01 06:18:20;;;;;;;;;9.25;9.00;;;;;22.28;54.44;101400.00;2412354;28;46534;-81
2022/09/01 06:19:32;;;;;;;;;14.50;11.50;;;;;22.30;54.81;101405.28;2412498;28;45272;-81
2022/09/01 06:20:45;;;;;;;;;12.00;12.00;;;;;22.31;54.60;101401.63;2414255;28;45430;-80
2022/09/01 06:21:55;;;;;;;;;11.75;11.00;;;;;22.31;54.76;101401.63;2412474;28;44671;-81
2022/09/01 06:23:06;;;;;;;;;10.50;10.00;;;;;22.31;54.83;101406.97;2412402;28;45398;-81
2022/09/01 06:24:16;;;;;;;;;8.00;8.00;;;;;22.32;54.79;101404.16;2412216;28;44594;-81
2022/09/01 06:25:29;;;;;;;;;18.00;13.50;;;;;22.34;54.87;101398.72;2414308;28;45228;-80
2022/09/01 06:26:40;;;;;;;;;13.00;10.50;;;;;22.35;54.78;101403.94;2412542;28;45462;-80
2022/09/01 06:27:51;;;;;;;;;11.75;10.00;;;;;22.36;54.61;101403.00;2413988;28;45316;-80
2022/09/01 06:29:04;;;;;;;;;13.00;13.00;;;;;22.37;54.20;101399.34;2415790;28;45422;-80
2022/09/01 06:30:19;;;;;;;;;7.75;7.50;;;;;22.37;54.43;101399.34;2418359;28;45390;-82
2022/09/01 06:31:32;;;;;;;;;11.75;10.75;;;;;22.40;54.29;101405.47;2410983;28;45223;-80
2022/09/01 06:32:43;;;;;;;;;9.25;7.50;;;;;22.40;54.53;101406.28;2417056;28;45522;-81
2022/09/01 06:33:54;;;;;;;;;14.50;12.50;;;;;22.42;53.79;101404.34;2419847;28;45450;-81
2022/09/01 06:35:08;;;;;;;;;11.25;11.25;;;;;22.43;53.88;101400.72;2420378;28;46364;-85
2022/09/01 06:36:22;;;;;;;;;14.25;13.50;;;;;22.44;53.99;101407.78;2422106;28;44824;-85
2022/09/01 06:37:33;;;;;;;;;12.50;12.50;;;;;22.44;54.19;101407.78;2427003;28;48263;-83
2022/09/01 06:38:44;;;;;;;;;14.75;12.75;;;;;22.44;54.22;101401.56;2414008;28;44694;-80
2022/09/01 06:39:56;;;;;;;;;13.00;13.00;;;;;22.45;54.24;101404.13;2416934;28;45276;-80
2022/09/01 06:41:09;;;;;;;;;11.50;10.25;;;;;22.47;54.28;101409.41;2415826;28;45265;-80
2022/09/01 06:42:22;;;;;;;;;15.75;13.00;;;;;22.48;54.36;101403.91;2430287;28;47797;-80
2022/09/01 06:43:32;;;;;;;;;11.75;10.00;;;;;22.51;54.35;101407.34;2425379;28;44734;-80
2022/09/01 06:44:42;;;;;;;;;15.25;14.25;;;;;22.51;54.44;101405.50;2417840;28;45413;-80
2022/09/01 06:45:53;;;;;;;;;12.00;10.00;;;;;22.52;54.75;101409.88;2421823;28;45532;-80
2022/09/01 06:47:03;;;;;;;;;15.00;12.50;;;;;22.54;54.58;101399.06;2415724;28;46166;-80
2022/09/01 06:48:15;;;;;;;;;13.25;13.25;;;;;22.55;54.32;101407.00;2415147;28;44754;-80
2022/09/01 06:49:31;;;;;;;;;13.00;12.00;;;;;22.57;54.49;101410.41;2414595;28;46080;-80
2022/09/01 06:50:42;;;;;;;;;10.00;9.50;;;;;22.60;54.87;101406.66;2411862;28;45401;-80
2022/09/01 06:51:53;;;;;;;;;11.75;11.50;;;;;22.60;54.40;101407.50;2421357;28;45328;-80
2022/09/01 06:53:09;;;;;;;;;14.25;11.50;;;;;22.64;54.41;101404.59;2419633;28;45264;-80
2022/09/01 06:54:20;;;;;;;;;11.75;10.25;;;;;22.65;53.83;101404.47;2411740;28;45623;-80
2022/09/01 06:55:32;;;;;;;;;13.75;11.50;;;;;22.69;54.17;101407.84;2410883;28;45408;-81
2022/09/01 06:56:43;;;;;;;;;14.75;13.25;;;;;22.73;54.22;101411.13;2410939;28;45425;-80
2022/09/01 06:57:53;;;;;;;;;11.00;10.25;;;;;22.76;53.56;101411.75;2413216;28;45477;-82
2022/09/01 06:59:04;;;;;;;;;13.25;11.50;;;;;22.79;53.53;101414.19;2419246;28;46136;-80
2022/09/01 07:00:19;;;;;;;;;10.75;10.75;;;;;22.83;53.84;101414.81;2412334;28;45345;-80
2022/09/01 07:01:30;;;;;;;;;12.50;11.25;;;;;22.86;53.70;101414.59;2412097;28;45309;-81
2022/09/01 07:02:41;;;;;;;;;13.00;11.50;;;;;22.90;54.23;101412.53;2417159;28;45237;-80
2022/09/01 07:03:54;;;;;;;;;11.75;11.00;;;;;22.92;54.19;101414.13;2420346;28;45627;-80
2022/09/01 07:05:06;;;;;;;;;12.00;11.50;;;;;22.96;53.84;101419.25;2412283;28;44702;-81
2022/09/01 07:06:23;;;;;;;;;9.50;8.00;;;;;22.96;53.38;101412.09;2412187;28;46107;-80
2022/09/01 07:07:36;;;;;;;;;11.75;11.25;;;;;22.97;53.63;101407.56;2416170;28;45254;-80
2022/09/01 07:08:48;;;;;;;;;12.50;12.00;;;;;22.99;53.24;101411.00;2412007;28;45627;-80
2022/09/01 07:09:59;;;;;;;;;13.25;11.75;;;;;22.99;53.68;101411.00;2412301;28;45225;-80
2022/09/01 07:11:22;;;;;;;;;16.00;12.50;;;;;23.01;53.51;101414.41;2410274;28;45246;-80
2022/09/01 07:12:34;;;;;;;;;12.75;10.75;;;;;23.04;53.24;101414.16;2412259;28;44733;-80
2022/09/01 07:13:44;;;;;;;;;13.50;13.50;;;;;23.03;52.77;101412.47;2417181;28;46289;-80
2022/09/01 07:14:56;;;;;;;;;13.50;11.00;;;;;23.04;53.72;101408.81;2421521;28;44799;-80
2022/09/01 07:16:06;;;;;;;;;11.25;11.00;;;;;23.03;53.41;101413.34;2420957;28;45208;-80
2022/09/01 07:17:18;;;;;;;;;12.00;12.00;;;;;23.06;52.80;101412.25;2412097;28;45186;-80
2022/09/01 07:18:30;;;;;;;;;11.00;11.00;;;;;23.07;53.47;101415.75;2416790;28;46402;-80
2022/09/01 07:19:40;;;;;;;;;11.25;10.50;;;;;23.08;53.20;101418.34;2415672;28;45783;-80
2022/09/01 07:20:53;;;;;;;;;13.25;11.75;;;;;23.10;53.13;101412.84;2412197;28;45461;-80
2022/09/01 07:22:04;;;;;;;;;10.75;9.25;;;;;23.11;53.38;101410.03;2420356;28;45401;-80
2022/09/01 07:23:15;;;;;;;;;12.50;11.75;;;;;23.14;53.50;101415.19;2421620;28;45439;-80
2022/09/01 07:24:27;;;;;;;;;8.00;7.25;;;;;23.17;53.92;101419.44;2412602;28;45312;-81
2022/09/01 07:25:40;;;;;;;;;12.25;12.25;;;;;23.18;53.57;101414.94;2411993;28;45273;-80
2022/09/01 07:26:52;;;;;;;;;14.00;11.00;;;;;23.21;53.21;101414.72;2411870;28;44665;-79
2022/09/01 07:28:02;;;;;;;;;13.25;12.00;;;;;23.21;53.02;101412.03;2412307;28;45577;-80
2022/09/01 07:29:13;;;;;;;;;14.25;13.50;;;;;23.22;53.17;101411.91;2419408;28;45324;-80
2022/09/01 07:30:23;;;;;;;;;14.00;13.75;;;;;23.23;53.70;101412.78;2411666;28;45368;-81
2022/09/01 07:31:40;;;;;;;;;14.50;13.25;;;;;23.24;53.67;101411.78;2411258;28;45236;-81
2022/09/01 07:32:51;;;;;;;;;16.00;15.25;;;;;23.26;52.96;101413.38;2411592;28;45336;-81
2022/09/01 07:34:04;;;;;;;;;13.75;13.25;;;;;23.25;53.25;101411.69;2411242;28;45404;-81
2022/09/01 07:35:18;;;;;;;;;18.25;15.00;;;;;23.28;52.71;101415.97;2411353;28;46576;-80
2022/09/01 07:36:29;;;;;;;;;15.75;15.25;;;;;23.27;52.74;101422.28;2413178;28;44751;-80
2022/09/01 07:37:39;;;;;;;;;12.00;11.50;;;;;23.27;52.95;101416.91;2418852;28;46441;-80
2022/09/01 07:38:52;;;;;;;;;15.25;13.00;;;;;23.28;52.64;101421.31;2429359;28;45254;-81
2022/09/01 07:40:05;;;;;;;;;15.50;14.75;;;;;23.28;52.98;101418.63;2417865;28;46363;-80
2022/09/01 07:41:16;;;;;;;;;13.25;13.25;;;;;23.28;52.90;101415.97;2411707;28;45422;-80
2022/09/01 07:42:28;;;;;;;;;16.75;13.50;;;;;23.30;52.13;101422.06;2411812;28;45394;-80
2022/09/01 07:43:41;;;;;;;;;14.00;12.25;;;;;23.31;53.17;101413.03;2412362;28;45247;-80
2022/09/01 07:44:52;;;;;;;;;15.25;14.00;;;;;23.32;52.50;101417.41;2413622;28;45420;-80
2022/09/01 07:46:04;;;;;;;;;12.25;12.00;;;;;23.34;52.33;101418.16;2418328;28;45233;-81
2022/09/01 07:47:16;;;;;;;;;12.25;10.00;;;;;23.34;52.48;101419.97;2421869;28;45551;-80
2022/09/01 07:48:28;;;;;;;;;13.25;10.75;;;;;23.34;51.75;101415.47;2423373;28;45260;-81
2022/09/01 07:49:39;;;;;;;;;17.75;16.25;;;;;23.37;52.96;101417.94;2415252;28;45425;-81
2022/09/01 07:50:53;;;;;;;;;16.00;15.25;;;;;23.36;52.12;101415.38;2413640;28;45161;-80
2022/09/01 07:52:04;;;;;;;;;12.75;12.25;;;;;23.37;52.17;101417.06;2413458;28;45353;-80
2022/09/01 07:53:22;;;;;;;;;16.75;14.50;;;;;23.38;52.07;101416.94;2413659;28;45293;-80
2022/09/01 07:54:36;;;;;;;;;17.50;16.50;;;;;23.39;52.14;101420.47;2413353;28;46283;-80
2022/09/01 07:55:49;;;;;;;;;16.00;12.50;;;;;23.40;52.03;101418.66;2413725;28;45189;-80
2022/09/01 07:57:00;;;;;;;;;20.50;14.00;;;;;23.41;52.49;101420.38;2412436;28;47048;-80
2022/09/01 07:58:12;;;;;;;;;11.00;10.50;;;;;23.42;52.46;101420.25;2413023;28;45315;-80
2022/09/01 07:59:23;;;;;;;;;15.00;13.00;;;;;23.44;52.12;101426.34;2422249;28;47047;-80
2022/09/01 08:00:33;;;;;;;;;14.00;12.50;;;;;23.45;52.12;101420.00;2419839;28;45301;-80
2022/09/01 08:01:44;;;;;;;;;15.25;12.50;;;;;23.46;51.80;101421.72;2422215;28;47243;-80
2022/09/01 08:02:54;;;;;;;;;13.00;11.25;;;;;23.48;51.73;101424.28;2419695;28;44734;-80
2022/09/01 08:04:04;;;;;;;;;18.00;16.00;;;;;23.49;52.06;101420.66;2413377;28;46506;-80
2022/09/01 08:05:21;;;;;;;;;20.75;17.00;;;;;23.52;52.26;101428.47;2416373;28;44740;-80
2022/09/01 08:06:33;;;;;;;;;16.50;16.00;;;;;23.54;52.28;101421.16;2416979;28;45397;-80
2022/09/01 08:07:47;;;;;;;;;17.00;15.75;;;;;23.55;51.66;101425.56;2422404;28;44748;-80
2022/09/01 08:08:59;;;;;;;;;16.50;14.50;;;;;23.58;51.51;101433.34;2423020;28;45327;-80
2022/09/01 08:10:09;;;;;;;;;18.50;15.00;;;;;23.59;51.73;101429.69;2415067;28;45270;-80
2022/09/01 08:11:24;;;;;;;;;17.00;13.75;;;;;23.59;51.73;101418.97;2412155;28;48061;-81
2022/09/01 08:12:36;;;;;;;;;17.00;16.00;;;;;23.60;51.27;101428.72;2412964;28;45452;-80
2022/09/01 08:13:46;;;;;;;;;16.50;15.00;;;;;23.60;52.09;101422.50;2422965;28;46463;-80
2022/09/01 08:14:57;;;;;;;;;14.75;13.25;;;;;23.62;51.59;101423.22;2415829;28;45309;-80
2022/09/01 08:16:09;;;;;;;;;9.75;9.75;;;;;23.63;51.96;101437.50;2414010;28;45465;-81
2022/09/01 08:17:20;;;;;;;;;14.00;13.00;;;;;23.63;51.78;101427.59;2416923;28;45240;-88
2022/09/01 08:18:30;;;;;;;;;14.75;13.50;;;;;23.67;51.68;101430.91;2422204;28;46250;-92
2022/09/01 08:19:42;;;;;;;;;14.00;13.00;;;;;23.66;51.39;101430.06;2412318;28;45210;-91
2022/09/01 08:20:52;;;;;;;;;17.25;14.75;;;;;23.66;52.43;101429.19;2405611;28;48568;-91
2022/09/01 08:22:03;;;;;;;;;14.25;14.25;;;;;23.67;51.71;101431.78;2422634;28;44695;-92
2022/09/01 08:23:17;;;;;;;;;13.75;13.25;;;;;23.68;51.39;101425.41;2425034;28;46868;-81
2022/09/01 08:24:27;;;;;;;;;11.75;9.75;;;;;23.68;51.35;101428.09;2418835;28;45330;-80
2022/09/01 08:25:38;;;;;;;;;16.50;13.25;;;;;23.68;51.51;101424.59;2413236;28;46304;-80
2022/09/01 08:26:49;;;;;;;;;16.50;13.25;;;;;23.70;51.44;101430.69;2413031;28;45254;-81
2022/09/01 08:28:01;;;;;;;;;15.25;11.75;;;;;23.69;51.19;101424.47;2413211;28;46449;-81
2022/09/01 08:29:11;;;;;;;;;14.00;14.00;;;;;23.71;51.46;101425.19;2422280;28;44790;-80
2022/09/01 08:30:22;;;;;;;;;12.50;12.50;;;;;23.73;51.22;101424.22;2419508;28;45378;-80
2022/09/01 08:31:34;;;;;;;;;13.00;11.25;;;;;23.75;51.90;101433.00;2413373;28;44750;-80
2022/09/01 08:32:45;;;;;;;;;18.50;14.75;;;;;23.76;51.59;101432.88;2413277;28;45483;-81
2022/09/01 08:33:55;;;;;;;;;13.50;12.50;;;;;23.76;51.50;101426.66;2413439;28;44765;-81
2022/09/01 08:35:07;;;;;;;;;16.00;13.00;;;;;23.77;51.59;101431.06;2431032;28;47929;-81
2022/09/01 08:36:18;;;;;;;;;15.25;13.00;;;;;23.77;51.48;101426.53;2425817;28;44870;-80
2022/09/01 08:37:30;;;;;;;;;15.75;14.50;;;;;23.79;51.46;101437.16;2421866;28;47356;-81
2022/09/01 08:38:40;;;;;;;;;17.25;17.25;;;;;23.77;51.71;101426.53;2419682;28;45312;-81
2022/09/01 08:39:51;;;;;;;;;19.25;19.25;;;;;23.79;50.95;101429.94;2412986;28;45605;-81
2022/09/01 08:41:02;;;;;;;;;15.25;14.00;;;;;23.80;51.34;101425.44;2413089;28;44910;-80
2022/09/01 08:42:24;;;;;;;;;17.25;16.00;;;;;23.83;51.54;101433.22;2413059;28;46533;-81
2022/09/01 08:43:49;;;;;;;;;18.75;17.25;;;;;23.85;51.50;101433.13;2431686;28;44784;-81
2022/09/01 08:45:14;;;;;;;;;14.75;14.25;;;;;23.86;51.66;101427.63;2422207;28;45329;-81
2022/09/01 08:46:29;;;;;;;;;16.75;15.25;;;;;23.88;51.08;101428.34;2412559;28;45324;-80
2022/09/01 08:47:39;;;;;;;;;18.00;17.75;;;;;23.91;51.27;101428.13;2428792;28;47084;-81
2022/09/01 08:49:06;;;;;;;;;12.50;12.50;;;;;23.93;51.22;101426.16;2418777;28;45426;-81
2022/09/01 08:50:19;;;;;;;;;17.25;17.00;;;;;23.97;51.13;101426.78;2412868;28;45612;-81
2022/09/01 08:51:37;;;;;;;;;16.25;14.25;;;;;23.99;50.83;101432.88;2413460;28;44780;-81
2022/09/01 08:53:03;;;;;;;;;17.50;15.00;;;;;24.03;51.25;101428.09;2413103;28;46410;-81
2022/09/01 08:54:26;;;;;;;;;19.25;13.50;;;;;24.05;51.35;101437.75;2413082;28;44741;-82
2022/09/01 08:55:44;;;;;;;;;15.50;12.25;;;;;24.07;51.42;101437.66;2402523;28;46618;-83
2022/09/01 08:57:00;;;;;;;;;16.50;15.25;;;;;24.10;51.11;101432.00;2412290;28;45193;-83
2022/09/01 08:58:15;;;;;;;;;16.50;15.00;;;;;24.12;51.01;101434.59;2413121;28;45467;-83
2022/09/01 08:59:26;;;;;;;;;17.50;15.50;;;;;24.12;51.15;101430.06;2413013;28;44714;-83
2022/09/01 09:00:45;;;;;;;;;12.50;11.75;;;;;24.14;51.18;101433.50;2412882;28;46544;-82
2022/09/01 09:01:58;;;;;;;;;11.25;10.50;;;;;24.17;50.95;101435.06;2413171;28;45216;-82
2022/09/01 09:03:25;;;;;;;;;18.25;16.50;;;;;24.19;50.87;101435.81;2412376;28;48054;-83
2022/09/01 09:04:35;;;;;;;;;15.75;14.00;;;;;24.22;50.49;101440.06;2404264;28;45428;-82
2022/09/01 09:06:12;;;;;;;;;13.75;13.00;;;;;24.23;50.67;101441.75;2412569;28;45261;-82
2022/09/01 09:07:49;;;;;;;;;17.75;15.25;;;;;24.24;50.79;101436.28;2415683;28;45574;-82
2022/09/01 09:09:02;;;;;;;;;15.50;14.50;;;;;24.26;50.32;101430.81;2415273;28;46198;-82
2022/09/01 09:10:18;;;;;;;;;13.25;13.25;;;;;24.28;50.63;101437.78;2412585;28;44671;-82
2022/09/01 09:12:01;;;;;;;;;15.75;13.25;;;;;24.31;50.62;101438.50;2412438;28;46402;-81
2022/09/01 09:13:47;;;;;;;;;13.50;13.50;;;;;24.32;50.44;101435.69;2371032;28;45441;-81
2022/09/01 09:15:22;;;;;;;;;16.00;12.00;;;;;24.35;50.58;101442.63;2400772;28;47225;-81
2022/09/01 09:16:46;;;;;;;;;13.50;12.75;;;;;24.36;50.83;101431.78;2414699;28;45416;-82
2022/09/01 09:18:20;;;;;;;;;13.75;13.75;;;;;24.38;50.50;101437.00;2412993;28;46380;-81
2022/09/01 09:19:40;;;;;;;;;11.75;10.00;;;;;24.38;50.08;101435.19;2404264;28;44558;-82
2022/09/01 09:20:51;;;;;;;;;12.75;11.00;;;;;24.41;50.52;101434.09;2403330;28;45359;-83
2022/09/01 09:22:11;;;;;;;;;17.25;14.75;;;;;24.43;50.27;101436.63;2412853;28;45140;-83
2022/09/01 09:23:32;;;;;;;;;5.75;5.75;;;;;24.44;50.51;101431.16;2422514;28;46219;-82
2022/09/01 09:24:49;;;;;;;;;17.00;13.75;;;;;24.48;50.24;101429.91;2412726;28;44612;-82
2022/09/01 09:25:59;;;;;;;;;13.25;11.25;;;;;24.50;50.74;101436.00;2408422;28;45573;-82
2022/09/01 09:27:09;;;;;;;;;14.75;14.75;;;;;24.53;50.33;101437.59;2415985;28;45251;-82
2022/09/01 09:28:20;;;;;;;;;10.50;10.50;;;;;24.55;50.04;101435.63;2412705;28;46380;-82
2022/09/01 09:29:31;;;;;;;;;8.00;7.00;;;;;24.57;50.25;101432.84;2421344;28;45173;-82
2022/09/01 09:30:41;;;;;;;;;14.25;13.00;;;;;24.59;49.96;101429.03;2417201;28;45466;-82
2022/09/01 09:32:06;;;;;;;;;14.50;13.25;;;;;24.59;50.01;101429.03;2412782;28;45360;-83
2022/09/01 09:33:36;;;;;;;;;13.50;12.25;;;;;24.63;50.29;101426.94;2416375;28;46288;-82
2022/09/01 09:34:47;;;;;;;;;17.00;14.25;;;;;24.64;50.09;101420.59;2412690;28;44666;-82
2022/09/01 09:36:17;;;;;;;;;13.00;13.00;;;;;24.66;49.88;101424.00;2412700;28;46341;-82
2022/09/01 09:37:29;;;;;;;;;12.00;11.00;;;;;24.66;50.34;101423.16;2412761;28;45328;-82
2022/09/01 09:38:40;;;;;;;;;14.75;11.25;;;;;24.66;50.20;101429.38;2412804;28;46349;-82
2022/09/01 09:40:14;;;;;;;;;16.00;13.00;;;;;24.68;49.83;101424.72;2412709;28;45220;-82
2022/09/01 09:41:25;;;;;;;;;14.75;14.00;;;;;24.67;49.86;101423.00;2412342;28;46170;-82
2022/09/01 09:42:42;;;;;;;;;12.00;10.75;;;;;24.66;50.13;101423.16;2412759;28;45454;-83
2022/09/01 09:43:58;;;;;;;;;13.00;13.00;;;;;24.69;49.58;101428.28;2420502;28;45550;-83
2022/09/01 09:45:21;;;;;;;;;14.25;13.00;;;;;24.68;49.89;101422.03;2417384;28;44587;-83
2022/09/01 09:46:42;;;;;;;;;15.00;13.25;;;;;24.70;49.47;101422.75;2415234;28;46006;-82
2022/09/01 09:47:55;;;;;;;;;13.50;12.00;;;;;24.70;50.39;101429.97;2419004;28;45344;-82
2022/09/01 09:49:18;;;;;;;;;13.25;11.75;;;;;24.71;50.05;101427.16;2412693;28;45398;-82
2022/09/01 09:50:41;;;;;;;;;13.00;11.75;;;;;24.70;50.10;101425.44;2412986;28;44575;-82
2022/09/01 09:51:55;;;;;;;;;10.00;10.00;;;;;24.73;49.55;101430.56;2412554;28;45438;-82
2022/09/01 09:53:27;;;;;;;;;11.75;11.75;;;;;24.73;49.73;101427.03;2412846;28;45357;-82
2022/09/01 09:55:04;;;;;;;;;14.00;14.00;;;;;24.75;49.93;101427.75;2412656;28;46474;-82
2022/09/01 09:56:18;;;;;;;;;13.00;11.50;;;;;24.77;49.43;101417.72;2403102;28;45430;-82
2022/09/01 09:57:31;;;;;;;;;12.50;12.25;;;;;24.79;49.55;101420.31;2412731;28;45433;-82
2022/09/01 09:58:45;;;;;;;;;15.50;12.50;;;;;24.81;49.74;101423.72;2413115;28;45223;-82
2022/09/01 10:00:05;;;;;;;;;12.25;10.75;;;;;24.84;49.93;101420.78;2415081;28;45570;-82
2022/09/01 10:01:21;;;;;;;;;13.00;10.00;;;;;24.86;49.49;101421.50;2421546;28;45159;-82
2022/09/01 10:02:41;;;;;;;;;11.50;10.00;;;;;24.86;49.31;101421.50;2412627;28;46348;-82
2022/09/01 10:03:56;;;;;;;;;12.75;10.75;;;;;24.89;49.29;101421.22;2412832;28;44765;-82
2022/09/01 10:05:28;;;;;;;;;13.00;13.00;;;;;24.91;49.09;101415.72;2412762;28;46551;-82
2022/09/01 10:06:45;;;;;;;;;12.75;12.75;;;;;24.90;49.26;101420.25;2412461;28;45145;-82
2022/09/01 10:07:57;;;;;;;;;11.50;10.00;;;;;24.93;49.58;101422.69;2412182;28;45515;-83
2022/09/01 10:09:15;;;;;;;;;13.50;12.50;;;;;24.95;50.00;101425.22;2412768;28;45173;-83
2022/09/01 10:10:30;;;;;;;;;12.00;10.75;;;;;24.98;49.26;101418.75;2412429;28;46504;-83
2022/09/01 10:11:44;;;;;;;;;15.00;15.00;;;;;25.00;49.05;101420.34;2412051;28;45173;-82
2022/09/01 10:12:55;;;;;;;;;13.25;12.50;;;;;25.03;49.10;101419.25;2412535;28;45268;-82
2022/09/01 10:14:15;;;;;;;;;12.50;12.50;;;;;25.05;49.64;101415.44;2412761;28;44856;-83
2022/09/01 10:15:29;;;;;;;;;12.75;12.75;;;;;25.10;49.33;101422.25;2412537;28;45401;-82
2022/09/01 10:16:41;;;;;;;;;12.00;11.25;;;;;25.11;48.67;101419.44;2412778;28;44591;-82
2022/09/01 10:17:54;;;;;;;;;13.25;13.25;;;;;25.13;49.07;101422.00;2412571;28;45461;-82
2022/09/01 10:19:10;;;;;;;;;15.50;11.75;;;;;25.14;48.96;101412.94;2412567;28;45335;-82
2022/09/01 10:20:24;;;;;;;;;12.00;10.50;;;;;25.14;48.87;101412.94;2414869;28;45539;-82
2022/09/01 10:21:39;;;;;;;;;12.25;12.25;;;;;25.14;48.66;101413.78;2422236;28;45235;-82
2022/09/01 10:22:50;;;;;;;;;11.00;11.00;;;;;25.15;49.07;101410.13;2412488;28;46140;-83
2022/09/01 10:24:12;;;;;;;;;12.00;10.25;;;;;25.17;49.26;101413.53;2412651;28;45260;-82
2022/09/01 10:25:27;;;;;;;;;13.00;12.75;;;;;25.20;48.67;101416.94;2412550;28;45629;-82
2022/09/01 10:26:41;;;;;;;;;9.75;8.75;;;;;25.21;48.87;101406.03;2412279;28;45288;-82
2022/09/01 10:27:57;;;;;;;;;12.00;10.25;;;;;25.22;48.81;101407.75;2412405;28;45645;-82
2022/09/01 10:29:17;;;;;;;;;11.25;10.25;;;;;25.27;48.56;101412.75;2419465;28;45438;-82
2022/09/01 10:30:29;;;;;;;;;12.00;12.00;;;;;25.28;48.56;101406.38;2412791;28;45312;-82
2022/09/01 10:31:40;;;;;;;;;11.75;11.75;;;;;25.30;48.46;101407.09;2429291;28;45232;-82
2022/09/01 10:32:54;;;;;;;;;10.75;10.25;;;;;25.32;48.38;101407.81;2423256;28;46250;-82
2022/09/01 10:34:10;;;;;;;;;11.25;11.25;;;;;25.35;48.16;101409.41;2412427;28;45410;-82
2022/09/01 10:35:23;;;;;;;;;12.25;10.50;;;;;25.37;48.46;101400.22;2412549;28;46213;-82
2022/09/01 10:36:35;;;;;;;;;11.50;10.50;;;;;25.38;48.25;101401.94;2412249;28;45330;-82
2022/09/01 10:37:46;;;;;;;;;12.75;12.00;;;;;25.42;48.34;101398.94;2412196;28;45386;-82
2022/09/01 10:38:57;;;;;;;;;11.75;11.75;;;;;25.45;47.73;101393.31;2412453;28;45178;-82
2022/09/01 10:40:15;;;;;;;;;17.00;13.50;;;;;25.46;47.97;101395.03;2412181;28;46437;-82
2022/09/01 10:41:42;;;;;;;;;11.25;9.50;;;;;25.49;48.31;101392.91;2412252;28;45444;-82
2022/09/01 10:42:55;;;;;;;;;10.75;10.50;;;;;25.51;48.34;101390.94;2412159;28;45541;-82
2022/09/01 10:44:11;;;;;;;;;10.50;10.50;;;;;25.52;47.83;101391.78;2412443;28;45273;-82
2022/09/01 10:45:34;;;;;;;;;8.25;8.25;;;;;25.54;48.05;101386.25;2412196;28;46548;-82
2022/09/01 10:46:45;;;;;;;;;11.50;11.50;;;;;25.54;48.14;101392.50;2412498;28;45211;-82
2022/09/01 10:48:18;;;;;;;;;11.00;10.25;;;;;25.56;47.96;101384.31;2412330;28;45544;-82
2022/09/01 10:49:28;;;;;;;;;10.25;9.25;;;;;25.57;47.83;101389.56;2412435;28;45296;-82